createdAt,value
2022-09-18T09:04:08.326Z,6.85
2022-09-18T09:06:50.508Z,6.67
2022-09-18T09:09:36.170Z,7.13
2022-09-18T09:12:44.925Z,7.30
2022-09-18T09:15:33.953Z,7.10
2022-09-18T09:18:16.443Z,6.97
2022-09-18T09:20:52.503Z,6.50
2022-09-18T09:23:44.857Z,7.03
2022-09-18T09:26:32.744Z,6.83
2022-09-18T09:32:35.809Z,6.83
2022-09-18T09:35:27.893Z,7.63
2022-09-18T09:37:55.733Z,7.30
2022-09-18T09:40:32.454Z,6.70
2022-09-18T09:43:10.747Z,8.27
2022-09-18T09:45:51.195Z,7.00
2022-09-18T09:48:44.742Z,7.30
2022-09-18T15:48:49.184Z,8.02
2022-09-18T15:51:27.305Z,8.20
2022-09-18T15:54:23.376Z,8.00
2022-09-18T15:56:53.035Z,7.30
2022-09-18T15:59:28.117Z,8.10
2022-09-18T16:01:58.670Z,8.43
2022-09-18T16:07:59.008Z,7.70
2022-09-18T16:10:35.138Z,8.37
2022-09-18T16:13:12.502Z,8.10
2022-09-18T16:15:43.602Z,8.23
2022-09-18T16:18:23.901Z,8.30
2022-09-18T16:20:57.793Z,7.97
2022-09-18T16:23:33.282Z,7.53
2022-09-18T16:26:19.954Z,7.63
2022-09-18T16:29:02.315Z,8.07
2022-09-18T16:31:33.756Z,8.00
2022-09-18T16:34:19.815Z,7.37
2022-09-18T16:36:47.001Z,7.70
2022-09-18T16:39:16.786Z,8.37
2022-09-18T16:41:44.621Z,8.40
2022-09-18T16:44:13.770Z,8.50
2022-09-18T16:46:50.257Z,8.17
2022-09-18T16:49:21.371Z,8.90
2022-09-18T16:51:48.169Z,8.30
2022-09-18T16:54:15.306Z,8.23
2022-09-18T16:56:48.701Z,8.10
2022-09-18T16:59:16.443Z,8.17
2022-09-18T17:02:02.872Z,8.10
2022-09-18T17:04:32.646Z,8.50
2022-09-18T17:06:59.702Z,8.60
2022-09-18T17:09:27.033Z,8.07
2022-09-18T17:11:54.714Z,8.40
2022-09-18T17:14:22.245Z,7.60
2022-09-18T17:16:49.209Z,7.93
2022-09-18T17:19:16.221Z,7.20
2022-09-18T17:21:42.985Z,8.23
2022-09-18T17:24:10.207Z,8.20
2022-09-18T17:26:38.713Z,7.63
2022-09-18T17:29:05.909Z,8.00
2022-09-18T17:31:32.901Z,8.20
2022-09-18T17:34:00.958Z,8.60
2022-09-18T17:36:28.114Z,7.80
2022-09-18T17:38:56.184Z,8.10
2022-09-18T17:41:24.403Z,8.13
2022-09-18T17:43:52.571Z,8.20
2022-09-18T17:46:20.632Z,8.30
2022-09-18T17:48:47.823Z,8.43
2022-09-18T17:51:18.596Z,9.00
2022-09-18T17:53:50.928Z,8.37
2022-09-18T17:56:19.927Z,8.20
2022-09-18T17:58:49.251Z,8.40
2022-09-18T18:01:19.031Z,8.43
2022-09-18T18:03:55.942Z,8.33
2022-09-18T18:06:22.908Z,8.20
2022-09-18T18:08:51.177Z,8.53
2022-09-18T18:11:25.349Z,8.77
2022-09-18T18:13:54.106Z,8.40
2022-09-18T18:16:24.185Z,8.67
2022-09-18T18:18:53.193Z,8.70
2022-09-18T18:21:20.718Z,8.20
2022-09-18T18:23:47.506Z,8.33
2022-09-18T18:26:14.577Z,8.10
2022-09-18T18:28:42.645Z,8.60
2022-09-18T18:31:12.727Z,8.60
2022-09-18T18:33:42.824Z,8.60
2022-09-18T18:36:13.230Z,8.47
2022-09-18T18:38:41.661Z,8.70
2022-09-18T18:41:09.192Z,8.23
2022-09-18T18:43:57.888Z,8.27
2022-09-18T18:46:27.075Z,8.27
2022-09-18T18:49:05.860Z,7.97
2022-09-18T18:51:43.819Z,8.50
2022-09-18T18:54:11.525Z,8.30
2022-09-18T18:56:39.046Z,8.10
2022-09-18T18:59:08.891Z,8.17
